Sign in

Advertise on goboko.com

You can reach many thousands of active pilots each month by advertising on goboko.com.

Please contact us for details.

Advertising

Info

Aviation weather - KVGT

METAR KVGT 240753Z 31004KT 10SM CLR 16/M08 A2994 RMK AO2 SLP142 T01561078 402500156

TAF KVGT 240520Z 2406/2506 VRB05KT P6SM BKN250 FM241800 13007KT P6SM SCT200 FM242100 18010KT P6SM SCT200

ADDS Experimental. Do not use for flight-related decisions.

Javascript required. Ce site nécessite javascript